Time;durP1;ratioP1;P1;durP2;ratioP2;P2;SDS_P1;SDS_P2;PMS_P1;PMS_P2;Temp;Humidity;BMP_temperature;BMP_pressure;BME280_temperature;BME280_humidity;BME280_pressure;Samples;Min_cycle;Max_cycle;Signal;HPM_P1;HPM_P2
2023/06/30 00:00:21;;;;;;;19.87;9.60;;;;;;;;;;5091698;28;20027;-66
2023/06/30 00:02:47;;;;;;;14.88;9.88;;;;;;;;;;5090396;28;20363;-66
2023/06/30 00:05:15;;;;;;;12.60;8.65;;;;;;;;;;5091505;28;20103;-65
2023/06/30 00:07:42;;;;;;;11.82;8.18;;;;;;;;;;5091290;28;20063;-66
2023/06/30 00:10:07;;;;;;;11.27;8.00;;;;;;;;;;5091088;28;20039;-65
2023/06/30 00:12:33;;;;;;;23.80;8.35;;;;;;;;;;5091099;28;20024;-65
2023/06/30 00:14:59;;;;;;;13.77;8.85;;;;;;;;;;5090764;28;20024;-65
2023/06/30 00:17:24;;;;;;;13.70;9.25;;;;;;;;;;5091016;28;20067;-66
2023/06/30 00:19:50;;;;;;;12.97;8.90;;;;;;;;;;5090661;28;20085;-65
2023/06/30 00:22:16;;;;;;;11.60;9.45;;;;;;;;;;5090773;28;20365;-65
2023/06/30 00:24:41;;;;;;;14.77;9.32;;;;;;;;;;5090843;28;20453;-65
2023/06/30 00:27:06;;;;;;;22.67;10.57;;;;;;;;;;5089578;28;20016;-65
2023/06/30 00:29:32;;;;;;;12.73;9.10;;;;;;;;;;5074931;28;20035;-66
2023/06/30 00:31:57;;;;;;;11.73;9.10;;;;;;;;;;5086646;28;20331;-66
2023/06/30 00:34:22;;;;;;;12.93;9.97;;;;;;;;;;5086483;28;20035;-65
2023/06/30 00:36:47;;;;;;;13.50;10.02;;;;;;;;;;5090654;28;20274;-66
2023/06/30 00:39:13;;;;;;;17.57;9.03;;;;;;;;;;5091057;28;20024;-66
2023/06/30 00:41:38;;;;;;;12.93;9.93;;;;;;;;;;5091465;28;20266;-65
2023/06/30 00:44:03;;;;;;;14.00;10.40;;;;;;;;;;5090924;28;20640;-65
2023/06/30 00:46:29;;;;;;;17.75;10.63;;;;;;;;;;5076768;28;20689;-65
2023/06/30 00:48:54;;;;;;;13.65;10.80;;;;;;;;;;5084336;28;20077;-65
2023/06/30 00:51:19;;;;;;;12.15;9.93;;;;;;;;;;5090224;28;20028;-66
2023/06/30 00:53:45;;;;;;;28.38;11.40;;;;;;;;;;5090198;28;20044;-65
2023/06/30 00:56:10;;;;;;;14.98;10.68;;;;;;;;;;5090741;28;20417;-65
2023/06/30 00:58:35;;;;;;;11.73;9.77;;;;;;;;;;5090698;28;20032;-65
2023/06/30 01:01:10;;;;;;;20.23;10.55;;;;;;;;;;5090389;28;20283;-65
2023/06/30 01:03:35;;;;;;;;;;;;;;;;;;5083325;28;20024;-65
2023/06/30 01:06:08;;;;;;;10.43;9.40;;;;;;;;;;5090300;28;19995;-65
2023/06/30 01:08:39;;;;;;;12.95;10.68;;;;;;;;;;5091142;28;20080;-65
2023/06/30 01:11:05;;;;;;;12.68;9.13;;;;;;;;;;5090622;28;20063;-65
2023/06/30 01:13:31;;;;;;;14.77;9.27;;;;;;;;;;5068806;28;20151;-65
2023/06/30 01:15:57;;;;;;;10.23;8.55;;;;;;;;;;5052981;28;20038;-65
2023/06/30 01:18:22;;;;;;;14.10;9.60;;;;;;;;;;5055335;28;20297;-65
2023/06/30 01:20:48;;;;;;;14.73;8.25;;;;;;;;;;5084497;28;20050;-65
2023/06/30 01:23:23;;;;;;;13.40;9.30;;;;;;;;;;5085480;28;20016;-64
2023/06/30 01:25:49;;;;;;;13.23;8.50;;;;;;;;;;5074538;28;20016;-65
2023/06/30 01:28:14;;;;;;;18.50;9.25;;;;;;;;;;5086763;28;20024;-64
2023/06/30 01:30:40;;;;;;;17.33;9.95;;;;;;;;;;5085292;28;20390;-65
2023/06/30 01:33:05;;;;;;;14.95;8.98;;;;;;;;;;5090518;28;20340;-64
2023/06/30 01:35:30;;;;;;;12.30;9.40;;;;;;;;;;5090880;28;20132;-64
2023/06/30 01:37:56;;;;;;;18.27;9.20;;;;;;;;;;5077395;28;20027;-65
2023/06/30 01:40:21;;;;;;;11.40;8.80;;;;;;;;;;5090872;28;20039;-65
2023/06/30 01:42:47;;;;;;;14.10;7.85;;;;;;;;;;5091590;28;20032;-64
2023/06/30 01:45:14;;;;;;;10.98;8.68;;;;;;;;;;5094420;28;20028;-64
2023/06/30 01:47:39;;;;;;;12.23;8.65;;;;;;;;;;5088094;28;20463;-64
2023/06/30 01:50:05;;;;;;;15.85;8.45;;;;;;;;;;5086794;28;20145;-64
2023/06/30 01:52:31;;;;;;;12.52;8.50;;;;;;;;;;5089480;28;20401;-64
2023/06/30 01:54:56;;;;;;;14.55;9.23;;;;;;;;;;5090476;28;20016;-64
2023/06/30 01:57:21;;;;;;;9.73;8.00;;;;;;;;;;5094032;28;20024;-64
2023/06/30 01:59:46;;;;;;;11.30;7.55;;;;;;;;;;5093938;28;20070;-64
2023/06/30 02:02:12;;;;;;;12.38;8.55;;;;;;;;;;5094066;28;20111;-64
2023/06/30 02:04:37;;;;;;;11.32;8.10;;;;;;;;;;5094237;28;20035;-64
2023/06/30 02:07:02;;;;;;;13.18;8.85;;;;;;;;;;5093444;28;20051;-64
2023/06/30 02:09:28;;;;;;;12.50;8.38;;;;;;;;;;5093631;28;20039;-65
2023/06/30 02:11:53;;;;;;;12.18;8.93;;;;;;;;;;5093310;28;20062;-64
2023/06/30 02:14:18;;;;;;;11.20;7.60;;;;;;;;;;5094250;28;20031;-64
2023/06/30 02:16:43;;;;;;;12.63;9.07;;;;;;;;;;5093583;28;20031;-65
2023/06/30 02:19:09;;;;;;;18.97;9.63;;;;;;;;;;5092958;28;20274;-64
2023/06/30 02:21:34;;;;;;;19.13;8.88;;;;;;;;;;5092912;28;20756;-64
2023/06/30 02:24:00;;;;;;;14.70;9.23;;;;;;;;;;5093470;28;20017;-65
2023/06/30 02:26:25;;;;;;;10.20;8.23;;;;;;;;;;5093375;28;20016;-65
2023/06/30 02:28:50;;;;;;;16.67;8.63;;;;;;;;;;5093887;28;20028;-65
2023/06/30 02:31:15;;;;;;;16.15;8.98;;;;;;;;;;5092812;28;20105;-65
2023/06/30 02:33:41;;;;;;;15.10;8.73;;;;;;;;;;5091388;28;20497;-65
2023/06/30 02:36:06;;;;;;;9.80;8.40;;;;;;;;;;5088771;28;20463;-66
2023/06/30 02:38:31;;;;;;;17.60;9.00;;;;;;;;;;5083605;28;20111;-65
2023/06/30 02:40:56;;;;;;;13.90;9.43;;;;;;;;;;5093055;28;20035;-65
2023/06/30 02:43:22;;;;;;;12.10;9.63;;;;;;;;;;5093414;28;20081;-66
2023/06/30 02:45:47;;;;;;;13.35;9.25;;;;;;;;;;5093148;28;20284;-66
2023/06/30 02:48:12;;;;;;;12.65;9.32;;;;;;;;;;5091311;28;20538;-66
2023/06/30 02:50:37;;;;;;;14.93;8.55;;;;;;;;;;5093376;28;20024;-66
2023/06/30 02:53:03;;;;;;;12.98;8.75;;;;;;;;;;5092991;28;20371;-66
2023/06/30 02:55:28;;;;;;;10.25;8.95;;;;;;;;;;5092032;28;20020;-66
2023/06/30 02:57:53;;;;;;;14.95;9.98;;;;;;;;;;5092923;28;20035;-66
2023/06/30 03:00:19;;;;;;;16.05;8.63;;;;;;;;;;5092938;28;20020;-66
2023/06/30 03:02:44;;;;;;;10.32;9.18;;;;;;;;;;5092158;28;20062;-66
2023/06/30 03:05:09;;;;;;;11.20;9.55;;;;;;;;;;5093345;28;20420;-66
2023/06/30 03:07:35;;;;;;;13.18;9.32;;;;;;;;;;5092683;28;20020;-66
2023/06/30 03:10:00;;;;;;;13.07;9.50;;;;;;;;;;5092734;28;20492;-66
2023/06/30 03:12:26;;;;;;;13.43;8.82;;;;;;;;;;5092424;28;20024;-66
2023/06/30 03:14:51;;;;;;;14.30;9.43;;;;;;;;;;5090630;28;20024;-66
2023/06/30 03:17:16;;;;;;;19.38;9.63;;;;;;;;;;5091882;28;20024;-66
2023/06/30 03:19:41;;;;;;;10.93;8.17;;;;;;;;;;5092362;28;20354;-66
2023/06/30 03:22:07;;;;;;;13.50;8.77;;;;;;;;;;5092947;28;20282;-66
2023/06/30 03:24:32;;;;;;;12.82;9.20;;;;;;;;;;5092778;28;20471;-66
2023/06/30 03:26:57;;;;;;;14.25;8.80;;;;;;;;;;5090488;28;20023;-66
2023/06/30 03:29:22;;;;;;;11.63;9.00;;;;;;;;;;5092452;28;20043;-65
2023/06/30 03:31:48;;;;;;;14.27;10.25;;;;;;;;;;5091814;28;20090;-66
2023/06/30 03:34:13;;;;;;;10.65;8.45;;;;;;;;;;5091904;28;20736;-66
2023/06/30 03:36:38;;;;;;;12.32;9.93;;;;;;;;;;5084494;28;20067;-66
2023/06/30 03:39:05;;;;;;;11.55;8.15;;;;;;;;;;5087341;28;20057;-65
2023/06/30 03:41:30;;;;;;;11.27;8.35;;;;;;;;;;5089836;28;20366;-65
2023/06/30 03:43:55;;;;;;;13.90;9.35;;;;;;;;;;5092581;28;20024;-65
2023/06/30 03:46:20;;;;;;;12.67;9.03;;;;;;;;;;5092238;28;20099;-65
2023/06/30 03:48:46;;;;;;;21.63;10.10;;;;;;;;;;5074076;28;20285;-66
2023/06/30 03:51:11;;;;;;;12.80;9.35;;;;;;;;;;5090741;28;20056;-65
2023/06/30 03:53:37;;;;;;;20.40;9.18;;;;;;;;;;5089388;28;20466;-65
2023/06/30 03:56:02;;;;;;;12.35;8.40;;;;;;;;;;5087424;28;20028;-65
2023/06/30 03:58:28;;;;;;;17.35;9.93;;;;;;;;;;5092068;28;20024;-65
2023/06/30 04:00:54;;;;;;;15.65;9.25;;;;;;;;;;5089358;28;20086;-65
2023/06/30 04:03:20;;;;;;;12.35;9.70;;;;;;;;;;5089707;28;20031;-64
2023/06/30 04:05:45;;;;;;;16.33;9.43;;;;;;;;;;5089626;28;20538;-64
2023/06/30 04:08:10;;;;;;;13.43;8.75;;;;;;;;;;5089850;28;20031;-64
2023/06/30 04:10:35;;;;;;;13.73;9.63;;;;;;;;;;5090257;28;20020;-64
2023/06/30 04:13:04;;;;;;;10.20;8.87;;;;;;;;;;5090443;28;20039;-63
2023/06/30 04:15:29;;;;;;;12.50;9.35;;;;;;;;;;5089871;28;20285;-64
2023/06/30 04:17:55;;;;;;;14.17;9.93;;;;;;;;;;5090346;28;20102;-64
2023/06/30 04:20:20;;;;;;;13.47;8.93;;;;;;;;;;5091140;28;20266;-64
2023/06/30 04:22:45;;;;;;;14.70;8.32;;;;;;;;;;5091904;28;20278;-63
2023/06/30 04:25:11;;;;;;;12.32;9.57;;;;;;;;;;5091503;28;20081;-64
2023/06/30 04:27:36;;;;;;;12.68;9.85;;;;;;;;;;5085848;28;20028;-64
2023/06/30 04:30:03;;;;;;;15.18;10.13;;;;;;;;;;5091651;28;20024;-64
2023/06/30 04:32:28;;;;;;;12.77;10.63;;;;;;;;;;5091592;28;20355;-64
2023/06/30 04:34:53;;;;;;;11.23;9.50;;;;;;;;;;5091785;28;20028;-64
2023/06/30 04:37:18;;;;;;;15.00;9.15;;;;;;;;;;5083381;28;20701;-64
2023/06/30 04:39:46;;;;;;;14.43;10.45;;;;;;;;;;5091691;28;20648;-64
2023/06/30 04:42:11;;;;;;;10.73;9.15;;;;;;;;;;5091449;28;20047;-64
2023/06/30 04:44:36;;;;;;;12.05;9.32;;;;;;;;;;5091218;28;20020;-64
2023/06/30 04:47:02;;;;;;;14.38;10.77;;;;;;;;;;5091005;28;20099;-64
2023/06/30 04:49:27;;;;;;;18.88;11.07;;;;;;;;;;5091292;28;20079;-64
2023/06/30 04:51:52;;;;;;;13.68;10.32;;;;;;;;;;5091220;28;20533;-65
2023/06/30 04:54:19;;;;;;;14.83;10.87;;;;;;;;;;5091340;28;20020;-65
2023/06/30 04:56:44;;;;;;;12.85;10.00;;;;;;;;;;5091600;28;20277;-64
2023/06/30 04:59:09;;;;;;;13.93;9.73;;;;;;;;;;5089842;28;20386;-65
2023/06/30 05:01:35;;;;;;;14.85;9.85;;;;;;;;;;5091283;28;20028;-65
2023/06/30 05:04:00;;;;;;;14.43;12.00;;;;;;;;;;5088084;28;20471;-64
2023/06/30 05:06:25;;;;;;;12.25;10.50;;;;;;;;;;5080949;28;20043;-64
2023/06/30 05:08:50;;;;;;;19.05;12.13;;;;;;;;;;5091038;28;20043;-64
2023/06/30 05:11:16;;;;;;;13.15;10.65;;;;;;;;;;5087443;28;20017;-64
2023/06/30 05:13:41;;;;;;;15.55;11.18;;;;;;;;;;5090865;28;20100;-64
2023/06/30 05:16:06;;;;;;;14.25;10.23;;;;;;;;;;5091014;28;20023;-64
2023/06/30 05:18:31;;;;;;;15.20;11.40;;;;;;;;;;5081576;28;20016;-64
2023/06/30 05:20:57;;;;;;;15.55;11.27;;;;;;;;;;5094871;28;20144;-65
2023/06/30 05:23:23;;;;;;;12.85;10.13;;;;;;;;;;5094482;28;20024;-64
2023/06/30 05:25:48;;;;;;;16.38;11.35;;;;;;;;;;5094672;28;20023;-64
2023/06/30 05:28:14;;;;;;;14.32;10.10;;;;;;;;;;5093782;28;20433;-64
2023/06/30 05:30:40;;;;;;;15.60;9.15;;;;;;;;;;5093819;28;20074;-64
2023/06/30 05:33:05;;;;;;;13.45;9.98;;;;;;;;;;5093936;28;20020;-65
2023/06/30 05:35:30;;;;;;;14.23;9.73;;;;;;;;;;5083372;28;20094;-65
2023/06/30 05:37:56;;;;;;;14.45;9.82;;;;;;;;;;5078148;28;20024;-65
2023/06/30 05:40:21;;;;;;;11.98;10.00;;;;;;;;;;5056858;28;20024;-64
2023/06/30 05:42:46;;;;;;;12.30;8.52;;;;;;;;;;5090890;28;20020;-65
2023/06/30 05:45:11;;;;;;;15.85;7.93;;;;;;;;;;5093255;28;20628;-64
2023/06/30 05:47:37;;;;;;;11.65;6.55;;;;;;;;;;5091381;28;20032;-64
2023/06/30 05:50:02;;;;;;;10.63;6.75;;;;;;;;;;5081794;28;20057;-64
2023/06/30 05:52:28;;;;;;;10.55;7.40;;;;;;;;;;5093276;28;20394;-65
2023/06/30 05:54:53;;;;;;;9.83;6.57;;;;;;;;;;5094381;28;20035;-64
2023/06/30 05:57:18;;;;;;;8.30;5.87;;;;;;;;;;5093410;28;20274;-64
2023/06/30 05:59:43;;;;;;;14.70;6.80;;;;;;;;;;5093744;28;20740;-64
2023/06/30 06:02:09;;;;;;;12.02;6.20;;;;;;;;;;5062788;28;20682;-65
2023/06/30 06:04:35;;;;;;;9.23;6.05;;;;;;;;;;5093702;28;20085;-64
2023/06/30 06:07:02;;;;;;;14.45;5.68;;;;;;;;;;5092853;28;20028;-64
2023/06/30 06:09:28;;;;;;;11.95;6.22;;;;;;;;;;5085834;28;20060;-64
2023/06/30 06:11:53;;;;;;;11.25;6.28;;;;;;;;;;5088338;28;20457;-64
2023/06/30 06:14:19;;;;;;;15.27;6.20;;;;;;;;;;5093435;28;20024;-65
2023/06/30 06:16:45;;;;;;;9.85;5.28;;;;;;;;;;5091570;28;20290;-65
2023/06/30 06:19:11;;;;;;;9.95;6.13;;;;;;;;;;5093597;28;20059;-65
2023/06/30 06:21:36;;;;;;;9.68;5.13;;;;;;;;;;5093118;28;20094;-65
2023/06/30 06:24:02;;;;;;;8.77;5.50;;;;;;;;;;5093492;28;20074;-65
2023/06/30 06:26:27;;;;;;;13.02;5.47;;;;;;;;;;5093119;28;20027;-65
2023/06/30 06:28:53;;;;;;;11.77;5.83;;;;;;;;;;5092775;28;20020;-65
2023/06/30 06:31:18;;;;;;;7.43;4.90;;;;;;;;;;5082124;28;20339;-65
2023/06/30 06:33:43;;;;;;;9.20;5.22;;;;;;;;;;5093482;28;20391;-65
2023/06/30 06:36:09;;;;;;;11.93;5.10;;;;;;;;;;5091321;28;20382;-65
2023/06/30 06:38:34;;;;;;;7.38;4.10;;;;;;;;;;5092946;28;20344;-65
2023/06/30 06:40:59;;;;;;;7.03;3.47;;;;;;;;;;5092159;28;20134;-65
2023/06/30 06:43:27;;;;;;;9.87;4.33;;;;;;;;;;5092899;28;20444;-65
2023/06/30 06:45:52;;;;;;;9.23;4.20;;;;;;;;;;5091433;28;20277;-65
2023/06/30 06:48:23;;;;;;;6.13;3.58;;;;;;;;;;5092509;28;20114;-65
2023/06/30 06:50:50;;;;;;;10.05;4.55;;;;;;;;;;5092249;28;20035;-66
2023/06/30 06:53:20;;;;;;;8.63;3.85;;;;;;;;;;5093041;28;20114;-65
2023/06/30 06:55:49;;;;;;;4.72;2.75;;;;;;;;;;5092775;28;20062;-65
2023/06/30 06:58:14;;;;;;;8.48;3.67;;;;;;;;;;5091033;28;20160;-65
2023/06/30 07:00:39;;;;;;;7.40;3.80;;;;;;;;;;5092485;28;20106;-66
2023/06/30 07:03:04;;;;;;;6.15;3.13;;;;;;;;;;5092399;28;20020;-66
2023/06/30 07:05:31;;;;;;;6.07;3.28;;;;;;;;;;5092528;28;20021;-66
2023/06/30 07:07:56;;;;;;;9.63;3.20;;;;;;;;;;5090122;28;20020;-66
2023/06/30 07:10:22;;;;;;;5.70;3.00;;;;;;;;;;5087887;28;20103;-66
2023/06/30 07:12:47;;;;;;;10.07;2.88;;;;;;;;;;5087231;28;20020;-66
2023/06/30 07:15:12;;;;;;;5.97;3.08;;;;;;;;;;5092912;28;20024;-67
2023/06/30 07:17:37;;;;;;;9.27;2.77;;;;;;;;;;5091587;28;20458;-66
2023/06/30 07:20:03;;;;;;;5.80;2.60;;;;;;;;;;5093297;28;20346;-66
2023/06/30 07:22:28;;;;;;;7.72;3.05;;;;;;;;;;5091864;28;20285;-66
2023/06/30 07:24:53;;;;;;;7.30;2.80;;;;;;;;;;5083833;28;20024;-67
2023/06/30 07:27:18;;;;;;;7.03;2.50;;;;;;;;;;5092236;28;20659;-67
2023/06/30 07:29:47;;;;;;;7.45;2.75;;;;;;;;;;5092433;28;20632;-67
2023/06/30 07:32:12;;;;;;;5.50;2.80;;;;;;;;;;5091783;28;20043;-67
2023/06/30 07:34:37;;;;;;;8.37;2.43;;;;;;;;;;5042339;28;20952;-67
2023/06/30 07:37:03;;;;;;;9.23;2.80;;;;;;;;;;5022424;28;21249;-68
2023/06/30 07:39:28;;;;;;;5.15;2.67;;;;;;;;;;5016289;28;20032;-67
2023/06/30 07:41:53;;;;;;;6.03;2.27;;;;;;;;;;5090040;28;20027;-67
2023/06/30 07:44:20;;;;;;;6.32;2.85;;;;;;;;;;5092186;28;20772;-67
2023/06/30 07:46:45;;;;;;;7.10;3.22;;;;;;;;;;5088538;28;20467;-67
2023/06/30 07:49:10;;;;;;;5.90;2.53;;;;;;;;;;5092016;28;20063;-67
2023/06/30 07:51:35;;;;;;;3.93;2.63;;;;;;;;;;5092570;28;20028;-67
2023/06/30 07:54:01;;;;;;;11.55;2.28;;;;;;;;;;5092022;28;20274;-67
2023/06/30 07:56:26;;;;;;;3.67;1.60;;;;;;;;;;5091849;28;20062;-68
2023/06/30 07:58:51;;;;;;;5.63;1.57;;;;;;;;;;5092431;28;20348;-67
2023/06/30 08:01:16;;;;;;;7.43;1.92;;;;;;;;;;5092391;28;20389;-67
2023/06/30 08:03:42;;;;;;;5.70;2.28;;;;;;;;;;5091990;28;20382;-67
2023/06/30 08:06:07;;;;;;;5.80;2.20;;;;;;;;;;5092254;28;20050;-67
2023/06/30 08:08:32;;;;;;;6.80;2.20;;;;;;;;;;5092167;28;20529;-67
2023/06/30 08:10:58;;;;;;;3.88;1.40;;;;;;;;;;5091756;28;20040;-67
2023/06/30 08:13:24;;;;;;;5.53;1.85;;;;;;;;;;5091707;28;20051;-67
2023/06/30 08:15:49;;;;;;;7.78;1.80;;;;;;;;;;5091860;28;20485;-67
2023/06/30 08:18:14;;;;;;;3.15;1.55;;;;;;;;;;5091733;28;20107;-67
2023/06/30 08:20:40;;;;;;;4.20;1.57;;;;;;;;;;5091694;28;20031;-67
2023/06/30 08:23:05;;;;;;;5.67;2.27;;;;;;;;;;5092082;28;20753;-67
2023/06/30 08:25:30;;;;;;;4.05;1.55;;;;;;;;;;5092179;28;20735;-68
2023/06/30 08:27:55;;;;;;;4.40;1.85;;;;;;;;;;5091550;28;20013;-67
2023/06/30 08:30:22;;;;;;;4.25;1.90;;;;;;;;;;5091379;28;20040;-67
2023/06/30 08:32:47;;;;;;;6.07;1.92;;;;;;;;;;5091691;28;20036;-67
2023/06/30 08:35:12;;;;;;;3.63;1.93;;;;;;;;;;5091594;28;20086;-67
2023/06/30 08:37:38;;;;;;;6.47;2.17;;;;;;;;;;5083494;28;20768;-67
2023/06/30 08:40:03;;;;;;;5.13;1.83;;;;;;;;;;5092360;28;20024;-67
2023/06/30 08:42:30;;;;;;;3.00;1.42;;;;;;;;;;5084788;28;20024;-67
2023/06/30 08:44:56;;;;;;;5.10;1.67;;;;;;;;;;5091943;28;20170;-67
2023/06/30 08:47:24;;;;;;;6.45;2.10;;;;;;;;;;5090927;28;20081;-66
2023/06/30 08:49:49;;;;;;;5.90;1.77;;;;;;;;;;5091731;28;20020;-67
2023/06/30 08:52:15;;;;;;;3.38;1.48;;;;;;;;;;5089264;28;20051;-67
2023/06/30 08:54:40;;;;;;;3.58;1.55;;;;;;;;;;5084614;28;20436;-66
2023/06/30 08:57:06;;;;;;;7.35;1.65;;;;;;;;;;5094590;28;20012;-66
2023/06/30 08:59:31;;;;;;;7.50;1.75;;;;;;;;;;5095358;28;20036;-66
2023/06/30 09:01:56;;;;;;;4.15;1.88;;;;;;;;;;5095034;28;20016;-66
2023/06/30 09:04:22;;;;;;;5.03;2.03;;;;;;;;;;5095391;28;20036;-66
2023/06/30 09:06:48;;;;;;;3.22;1.33;;;;;;;;;;5094720;28;20074;-66
2023/06/30 09:09:20;;;;;;;4.40;1.67;;;;;;;;;;5094988;28;20089;-66
2023/06/30 09:11:45;;;;;;;3.67;1.50;;;;;;;;;;5094733;28;20028;-68
2023/06/30 09:14:11;;;;;;;5.10;1.85;;;;;;;;;;5094679;28;20069;-67
2023/06/30 09:16:36;;;;;;;4.50;2.05;;;;;;;;;;5094479;28;20044;-68
2023/06/30 09:19:01;;;;;;;8.65;2.30;;;;;;;;;;5094900;28;20023;-68
2023/06/30 09:21:27;;;;;;;3.97;1.70;;;;;;;;;;5093949;28;20020;-68
2023/06/30 09:23:52;;;;;;;5.40;1.90;;;;;;;;;;5094872;28;20031;-68
2023/06/30 09:26:17;;;;;;;5.72;2.15;;;;;;;;;;5094376;28;20532;-68
2023/06/30 09:28:43;;;;;;;4.63;2.00;;;;;;;;;;5094370;28;20028;-67
2023/06/30 09:31:09;;;;;;;3.78;1.52;;;;;;;;;;5094930;28;20032;-68
2023/06/30 09:33:35;;;;;;;4.03;1.73;;;;;;;;;;5094789;28;20061;-67
2023/06/30 09:36:00;;;;;;;4.40;2.00;;;;;;;;;;5091614;28;20020;-67
2023/06/30 09:38:28;;;;;;;5.38;1.73;;;;;;;;;;5085934;28;20024;-67
2023/06/30 09:40:53;;;;;;;4.70;1.90;;;;;;;;;;5093620;28;20024;-67
2023/06/30 09:43:19;;;;;;;3.38;1.73;;;;;;;;;;5094401;28;20068;-67
2023/06/30 09:45:46;;;;;;;4.82;2.00;;;;;;;;;;5094092;28;20016;-67
2023/06/30 09:48:12;;;;;;;4.45;1.80;;;;;;;;;;5094532;28;20028;-67
2023/06/30 09:50:37;;;;;;;5.32;1.90;;;;;;;;;;5093921;28;20028;-67
2023/06/30 09:53:02;;;;;;;5.90;2.35;;;;;;;;;;5094263;28;20072;-68
2023/06/30 09:55:27;;;;;;;9.75;1.98;;;;;;;;;;5094020;28;20080;-67
2023/06/30 09:57:55;;;;;;;3.63;1.95;;;;;;;;;;5093839;28;20024;-68
2023/06/30 10:00:20;;;;;;;5.05;1.63;;;;;;;;;;5094036;28;20047;-67
2023/06/30 10:03:00;;;;;;;8.57;2.10;;;;;;;;;;5093315;28;20023;-66
2023/06/30 10:05:25;;;;;;;3.85;1.85;;;;;;;;;;5093939;28;20020;-66
2023/06/30 10:07:50;;;;;;;4.47;2.23;;;;;;;;;;5093923;28;20023;-66
2023/06/30 10:10:16;;;;;;;5.75;2.30;;;;;;;;;;5091470;28;20301;-66
2023/06/30 10:12:43;;;;;;;6.45;1.92;;;;;;;;;;5094105;28;20020;-67
2023/06/30 10:15:10;;;;;;;5.47;1.45;;;;;;;;;;5080377;28;20040;-67
2023/06/30 10:17:36;;;;;;;6.40;2.35;;;;;;;;;;5094056;28;20035;-68
2023/06/30 10:20:02;;;;;;;4.25;1.67;;;;;;;;;;5093332;28;20148;-67
2023/06/30 10:22:28;;;;;;;4.55;2.22;;;;;;;;;;5093667;28;20055;-68
2023/06/30 10:24:54;;;;;;;4.65;2.13;;;;;;;;;;5093872;28;20024;-67
2023/06/30 10:27:20;;;;;;;6.78;2.40;;;;;;;;;;5094035;28;20448;-68
2023/06/30 10:29:45;;;;;;;5.65;2.42;;;;;;;;;;5093761;28;20028;-68
2023/06/30 10:32:11;;;;;;;6.20;2.00;;;;;;;;;;5093457;28;20031;-67
2023/06/30 10:34:36;;;;;;;4.07;1.90;;;;;;;;;;5093503;28;20062;-67
2023/06/30 10:37:03;;;;;;;4.28;2.25;;;;;;;;;;5088427;28;20094;-69
2023/06/30 10:39:28;;;;;;;4.40;2.47;;;;;;;;;;5092038;28;20099;-66
2023/06/30 10:41:57;;;;;;;4.70;2.75;;;;;;;;;;5093374;28;20107;-67
2023/06/30 10:44:35;;;;;;;6.25;2.40;;;;;;;;;;5092209;28;20024;-67
2023/06/30 10:47:00;;;;;;;5.93;2.80;;;;;;;;;;5083284;28;20447;-67
2023/06/30 10:49:26;;;;;;;9.77;3.40;;;;;;;;;;5093146;28;20082;-68
2023/06/30 10:51:52;;;;;;;4.68;2.17;;;;;;;;;;5093360;28;20027;-68
2023/06/30 10:54:21;;;;;;;4.38;2.30;;;;;;;;;;5093155;28;20032;-67
2023/06/30 10:56:46;;;;;;;5.47;2.72;;;;;;;;;;5092704;28;20111;-67
2023/06/30 10:59:19;;;;;;;3.47;2.15;;;;;;;;;;5089848;28;20103;-67
2023/06/30 11:02:03;;;;;;;4.15;2.13;;;;;;;;;;5084209;28;20016;-67
2023/06/30 11:04:38;;;;;;;6.22;2.70;;;;;;;;;;5089658;28;20355;-67
2023/06/30 11:07:06;;;;;;;9.00;2.65;;;;;;;;;;5092882;28;20119;-67
2023/06/30 11:09:47;;;;;;;6.22;2.45;;;;;;;;;;5093117;28;20177;-66
2023/06/30 11:12:14;;;;;;;6.45;3.15;;;;;;;;;;5092214;28;20024;-66
2023/06/30 11:14:49;;;;;;;4.78;2.55;;;;;;;;;;5089294;28;20031;-67
2023/06/30 11:17:15;;;;;;;5.80;2.58;;;;;;;;;;5082595;28;20230;-66
2023/06/30 11:19:40;;;;;;;7.20;2.20;;;;;;;;;;5092279;28;20530;-67
2023/06/30 11:22:21;;;;;;;5.13;2.20;;;;;;;;;;5092064;28;20094;-66
2023/06/30 11:24:47;;;;;;;5.80;2.33;;;;;;;;;;5091348;28;20278;-67
2023/06/30 11:27:12;;;;;;;9.73;2.60;;;;;;;;;;5091218;28;20020;-67
2023/06/30 11:29:38;;;;;;;5.05;2.10;;;;;;;;;;5091418;28;20028;-67
2023/06/30 11:32:03;;;;;;;6.32;2.20;;;;;;;;;;5091679;28;20088;-67
2023/06/30 11:34:30;;;;;;;4.72;2.42;;;;;;;;;;5091908;28;20474;-67
2023/06/30 11:36:55;;;;;;;6.80;2.78;;;;;;;;;;5081511;28;20119;-67
2023/06/30 11:39:20;;;;;;;8.50;1.80;;;;;;;;;;5083824;28;20124;-67
2023/06/30 11:41:45;;;;;;;4.88;2.42;;;;;;;;;;5091573;28;20301;-66
2023/06/30 11:44:12;;;;;;;3.73;1.90;;;;;;;;;;5091889;28;20528;-67
2023/06/30 11:46:37;;;;;;;6.15;2.55;;;;;;;;;;5091220;28;20289;-66
2023/06/30 11:49:02;;;;;;;5.22;2.30;;;;;;;;;;5084688;28;20420;-67
2023/06/30 11:51:29;;;;;;;5.38;2.30;;;;;;;;;;5092417;28;20012;-67
2023/06/30 11:53:55;;;;;;;5.10;2.00;;;;;;;;;;5088531;28;20020;-67
2023/06/30 11:56:20;;;;;;;4.17;1.93;;;;;;;;;;5091126;28;20164;-68
2023/06/30 11:58:49;;;;;;;4.33;2.10;;;;;;;;;;5091140;28;20274;-67
2023/06/30 12:01:14;;;;;;;8.38;2.35;;;;;;;;;;5091532;28;20332;-69
2023/06/30 12:03:39;;;;;;;5.55;2.22;;;;;;;;;;5090247;28;20467;-67
2023/06/30 12:06:05;;;;;;;9.17;2.57;;;;;;;;;;5090053;28;20028;-67
2023/06/30 12:08:34;;;;;;;4.20;2.08;;;;;;;;;;5090994;28;20630;-67
2023/06/30 12:11:02;;;;;;;5.30;2.10;;;;;;;;;;5091348;28;20051;-67
2023/06/30 12:13:28;;;;;;;4.85;1.98;;;;;;;;;;5091487;28;20491;-67
2023/06/30 12:15:56;;;;;;;3.63;1.90;;;;;;;;;;5090574;28;20020;-68
2023/06/30 12:18:29;;;;;;;5.63;2.13;;;;;;;;;;5091595;28;20321;-67
2023/06/30 12:20:56;;;;;;;6.75;2.70;;;;;;;;;;5092043;28;20098;-68
2023/06/30 12:23:26;;;;;;;8.27;2.60;;;;;;;;;;5090450;28;20053;-72
2023/06/30 12:25:51;;;;;;;5.45;2.35;;;;;;;;;;5090844;28;20696;-68
2023/06/30 12:28:17;;;;;;;4.70;2.15;;;;;;;;;;5090570;28;20040;-68
2023/06/30 12:30:44;;;;;;;4.70;2.05;;;;;;;;;;5091933;28;20028;-67
2023/06/30 12:33:10;;;;;;;4.50;2.55;;;;;;;;;;5091674;28;20336;-67
2023/06/30 12:35:38;;;;;;;7.30;2.80;;;;;;;;;;5081447;28;20436;-67
2023/06/30 12:38:04;;;;;;;10.68;3.13;;;;;;;;;;5076623;28;20471;-67
2023/06/30 12:40:30;;;;;;;4.78;2.38;;;;;;;;;;5089848;28;20538;-68
2023/06/30 12:42:56;;;;;;;5.38;2.40;;;;;;;;;;5090153;28;20202;-68
2023/06/30 12:45:21;;;;;;;7.95;3.10;;;;;;;;;;5090867;28;20020;-67
2023/06/30 12:47:47;;;;;;;6.00;2.73;;;;;;;;;;5091195;28;20027;-67
2023/06/30 12:50:12;;;;;;;9.02;3.17;;;;;;;;;;5090216;28;20664;-67
2023/06/30 12:52:38;;;;;;;7.70;3.20;;;;;;;;;;5090313;28;20099;-68
2023/06/30 12:55:03;;;;;;;7.45;2.72;;;;;;;;;;5089047;28;20111;-68
2023/06/30 12:57:28;;;;;;;7.40;2.90;;;;;;;;;;5091190;28;20535;-68
2023/06/30 12:59:54;;;;;;;4.50;2.20;;;;;;;;;;5071961;28;20039;-68
2023/06/30 13:02:19;;;;;;;8.30;2.80;;;;;;;;;;5090272;28;20288;-67
2023/06/30 13:04:44;;;;;;;5.70;2.42;;;;;;;;;;5090712;28;20046;-68
2023/06/30 13:07:10;;;;;;;8.15;2.50;;;;;;;;;;5089920;28;20024;-67
2023/06/30 13:09:35;;;;;;;8.27;3.20;;;;;;;;;;5090757;28;20032;-66
2023/06/30 13:12:00;;;;;;;4.07;2.42;;;;;;;;;;5075953;28;20039;-68
2023/06/30 13:14:25;;;;;;;7.40;2.88;;;;;;;;;;5089715;28;20399;-68
2023/06/30 13:16:51;;;;;;;6.85;2.25;;;;;;;;;;5091049;28;20714;-67
2023/06/30 13:19:17;;;;;;;6.67;2.30;;;;;;;;;;5086873;28;20107;-68
2023/06/30 13:21:42;;;;;;;7.18;2.45;;;;;;;;;;5086822;28;20630;-68
2023/06/30 13:24:07;;;;;;;5.38;2.92;;;;;;;;;;5090265;28;20032;-67
2023/06/30 13:26:33;;;;;;;5.55;2.42;;;;;;;;;;5089907;28;20165;-67
2023/06/30 13:28:58;;;;;;;8.00;3.15;;;;;;;;;;5090222;28;20029;-68
2023/06/30 13:31:23;;;;;;;6.00;2.17;;;;;;;;;;5090216;28;20035;-67
2023/06/30 13:33:49;;;;;;;6.15;2.30;;;;;;;;;;5089950;28;20290;-68
2023/06/30 13:36:14;;;;;;;9.30;2.35;;;;;;;;;;5087815;28;20096;-68
2023/06/30 13:38:42;;;;;;;4.90;2.25;;;;;;;;;;5090686;28;20035;-68
2023/06/30 13:41:07;;;;;;;5.70;2.50;;;;;;;;;;5092841;28;20012;-68
2023/06/30 13:43:32;;;;;;;6.43;2.30;;;;;;;;;;5093044;28;20023;-67
2023/06/30 13:45:59;;;;;;;6.22;2.78;;;;;;;;;;5093750;28;20479;-67
2023/06/30 13:48:24;;;;;;;6.65;1.88;;;;;;;;;;5093896;28;20059;-67
2023/06/30 13:50:49;;;;;;;7.10;2.38;;;;;;;;;;5092372;28;20052;-67
2023/06/30 13:53:14;;;;;;;5.30;2.53;;;;;;;;;;5091481;28;20077;-68
2023/06/30 13:55:40;;;;;;;3.17;1.97;;;;;;;;;;5089729;28;20024;-68
2023/06/30 13:58:05;;;;;;;3.50;1.90;;;;;;;;;;5086431;28;20882;-68
2023/06/30 14:00:30;;;;;;;5.07;2.30;;;;;;;;;;5078330;28;20697;-68
2023/06/30 14:02:55;;;;;;;6.25;2.30;;;;;;;;;;5086815;28;20259;-68
2023/06/30 14:05:21;;;;;;;5.75;2.50;;;;;;;;;;5087067;28;20024;-67
2023/06/30 14:07:46;;;;;;;4.40;2.13;;;;;;;;;;5093049;28;20059;-68
2023/06/30 14:10:11;;;;;;;4.67;2.37;;;;;;;;;;5092133;28;20763;-68
2023/06/30 14:12:36;;;;;;;5.47;2.40;;;;;;;;;;5093011;28;20323;-68
2023/06/30 14:15:02;;;;;;;4.63;2.30;;;;;;;;;;5093659;28;20467;-68
2023/06/30 14:17:27;;;;;;;4.38;2.33;;;;;;;;;;5093998;28;20012;-67
2023/06/30 14:19:52;;;;;;;7.40;2.80;;;;;;;;;;5093037;28;20536;-66
2023/06/30 14:22:20;;;;;;;4.70;2.63;;;;;;;;;;5093045;28;20302;-67
2023/06/30 14:24:46;;;;;;;6.15;2.70;;;;;;;;;;5093112;28;20266;-67
2023/06/30 14:27:11;;;;;;;6.60;2.63;;;;;;;;;;5080312;28;20110;-67